Strona główna
METAR-TAF:

METAR-TAF

Lotnisko :

Port lotniczy Bagdad

Bagdad, Irak

Szerokość geograficzna: 33-15-45N, Długość geograficzna: 44-14-04E, wysokość: 35 m

Aktualna obserwacja pogody

Raport powstał 1 godzina i 7 minut temu, godzina 03:00 UTC
Wiatr 6 kt od południowy wschód
Temperatura 12°C
Wilgotność 88%
Ciśnienie 1018 hPa
Widzialność: 8000 m
Przerywane chmury na wysokości 3000 ft

METAR: ORBI 110300Z 13006KT 8000 BKN030 12/10 Q1018 NOSIG

czas: 07:07 (04:07 UTC)

Prognoza

Raport powstał 6 godziny i 7 minut temu, godzina 22:00 UTC
Prognoza ważna od 11 godzina 00 UTC do 11 godzina 24 UTC
Wiatr 3 kt z kierunków zmiennych
Widzialność: 4000 m
Rozproszone chmury na wysokości 3000 ft
Rozproszone chmury na wysokości 7000 ft
zamglenie

TAF: ORBI 102200Z 1100/1124 VRB03KT 4000 BR SCT030 SCT070

Obserwacja i prognoza pogody dla ponad 4000 lotnisk (raport METAR i TAF).

Dostępne stacje oznaczono żółtymi i czerwonymi punktami na mapie.

Najedź kursorem aby zobaczyć nazwę stacji.

Kliknij aby zobaczyć obserwacje i prognozy pogody.

Aby zmienić mapę: kliknij na zielony przycisk z czarnym krzyżykiem, aby powiększyć; na zielony przycisk z myślnikiem, aby pomniejszyć; na zielone strzałki, aby przejść do map sąsiednich.


METAR-TAF: